Aikoumaru No.8 — JD3288 — position and weather

sailwx.info

Track history (hours):
 
Tides and Currents Weather Stations Pressure Air Temp Water Temp Dewpoint Dewpoint Depression Visibility Wind Speed Wind Dir Waves Ship Positions

Aikoumaru No.8

Last reported at 2015-Jan-24 06:05 UTC. Time now 2015-Jan-28 18:18 UTC.
Position N 34°51' E 139°38'.

Length 74 m; draft 4.5 m.

Type: Cargo ship. MMSI: 431003153.

Date/timePositionNaut miles runAvg speedWind from/ knotsBaromVisibWave heightAir tempDewpointWater temp
2015-Jan-24 06:05N 34°51' E 139°38'  
2015-Jan-19 10:33N 34°54' E 139°47'1211.8
2015-Jan-19 09:33N 35°05' E 139°44'1212.3
2015-Jan-19 08:33N 35°17' E 139°44'1110.7
2015-Jan-19 07:33N 35°28' E 139°49'12 2.9
2015-Jan-19 03:27N 35°37' E 139°58'1 0.2
2015-Jan-18 22:11N 35°38' E 139°59'2 2.3
2015-Jan-18 21:12N 35°37' E 139°56'0 0.0
2015-Jan-18 20:12N 35°37' E 139°56'0 0.0
2015-Jan-18 19:30N 35°37' E 139°56'0 0.0
2015-Jan-18 18:30N 35°37' E 139°56'0 0.0
2015-Jan-18 17:06N 35°37' E 139°56'0 0.0
2015-Jan-18 09:24N 35°37' E 139°56'3 2.8
2015-Jan-18 08:28N 35°34' E 139°55'1112.5
2015-Jan-18 07:34N 35°27' E 139°45'6 6.1
2015-Jan-18 06:31N 35°23' E 139°38'0 0.0
2015-Jan-18 05:31N 35°23' E 139°38'0 0.0
2015-Jan-18 04:34N 35°23' E 139°38'0 0.0
2015-Jan-18 03:27N 35°23' E 139°38'0 0.0
2015-Jan-18 02:25N 35°23' E 139°38'0 0.0
2015-Jan-18 01:33N 35°23' E 139°38'1 0.5
2015-Jan-18 00:31N 35°24' E 139°39'5 5.2
2015-Jan-17 23:33N 35°20' E 139°43'1010.5
2015-Jan-17 22:34N 35°10' E 139°47'1211.6
2015-Jan-17 21:33N 35°02' E 139°37'2311.0
2015-Jan-17 19:29N 34°48' E 139°15'213 9.3
2015-Jan-16 20:33N 34°04' E 135°03'1111.3
2015-Jan-16 19:33N 34°16' E 135°03'1110.6
2015-Jan-16 18:33N 34°25' E 135°09'1110.8
2015-Jan-16 17:31N 34°33' E 135°18'7 7.5
2015-Jan-16 16:33N 34°34' E 135°27'0 0.3
2015-Jan-16 15:23N 34°34' E 135°27'0 0.1
2015-Jan-16 14:29N 34°34' E 135°27'0 0.0
2015-Jan-16 13:23N 34°34' E 135°27'0 0.1
2015-Jan-16 12:19N 34°34' E 135°27'0 0.0
2015-Jan-16 11:26N 34°34' E 135°27'0 0.0
2015-Jan-16 02:09N 34°34' E 135°27'2 0.2
2015-Jan-15 19:33N 34°35' E 135°28'1 0.1
2015-Jan-15 03:10N 34°35' E 135°27'0 0.0
2015-Jan-14 17:28N 34°35' E 135°27'0 0.0
2015-Jan-14 16:22N 34°35' E 135°27'0 0.0
2015-Jan-14 15:28N 34°35' E 135°27'0 0.0
2015-Jan-14 14:16N 34°35' E 135°27'0 0.0
2015-Jan-14 13:22N 34°35' E 135°27'0 0.0
2015-Jan-14 12:22N 34°35' E 135°27'6 6.9
2015-Jan-14 11:33N 34°34' E 135°20'1312.6
2015-Jan-14 10:33N 34°25' E 135°10'1211.4
2015-Jan-14 09:29N 34°14' E 135°03'1312.5
2015-Jan-14 08:28N 34°01' E 135°02'  
Track history (hours):
 
Tides and Currents Weather Stations Pressure Air Temp Water Temp Dewpoint Dewpoint Depression Visibility Wind Speed Wind Dir Waves Ship Positions

Aikoumaru No.8

Last reported at 2015-Jan-24 06:05 UTC. Time now 2015-Jan-28 18:18 UTC.
Position N 34°51' E 139°38'.

Length 74 m; draft 4.5 m.

Type: Cargo ship. MMSI: 431003153.

Date/timePositionNaut miles runAvg speedWind from/ knotsBaromVisibWave heightAir tempDewpointWater temp
2015-Jan-24 06:05N 34°51' E 139°38'  
2015-Jan-19 10:33N 34°54' E 139°47'1211.8
2015-Jan-19 09:33N 35°05' E 139°44'1212.3
2015-Jan-19 08:33N 35°17' E 139°44'1110.7
2015-Jan-19 07:33N 35°28' E 139°49'12 2.9
2015-Jan-19 03:27N 35°37' E 139°58'1 0.2
2015-Jan-18 22:11N 35°38' E 139°59'2 2.3
2015-Jan-18 21:12N 35°37' E 139°56'0 0.0
2015-Jan-18 20:12N 35°37' E 139°56'0 0.0
2015-Jan-18 19:30N 35°37' E 139°56'0 0.0
2015-Jan-18 18:30N 35°37' E 139°56'0 0.0
2015-Jan-18 17:06N 35°37' E 139°56'0 0.0
2015-Jan-18 09:24N 35°37' E 139°56'3 2.8
2015-Jan-18 08:28N 35°34' E 139°55'1112.5
2015-Jan-18 07:34N 35°27' E 139°45'6 6.1
2015-Jan-18 06:31N 35°23' E 139°38'0 0.0
2015-Jan-18 05:31N 35°23' E 139°38'0 0.0
2015-Jan-18 04:34N 35°23' E 139°38'0 0.0
2015-Jan-18 03:27N 35°23' E 139°38'0 0.0
2015-Jan-18 02:25N 35°23' E 139°38'0 0.0
2015-Jan-18 01:33N 35°23' E 139°38'1 0.5
2015-Jan-18 00:31N 35°24' E 139°39'5 5.2
2015-Jan-17 23:33N 35°20' E 139°43'1010.5
2015-Jan-17 22:34N 35°10' E 139°47'1211.6
2015-Jan-17 21:33N 35°02' E 139°37'2311.0
2015-Jan-17 19:29N 34°48' E 139°15'213 9.3
2015-Jan-16 20:33N 34°04' E 135°03'1111.3
2015-Jan-16 19:33N 34°16' E 135°03'1110.6
2015-Jan-16 18:33N 34°25' E 135°09'1110.8
2015-Jan-16 17:31N 34°33' E 135°18'7 7.5
2015-Jan-16 16:33N 34°34' E 135°27'0 0.3
2015-Jan-16 15:23N 34°34' E 135°27'0 0.1
2015-Jan-16 14:29N 34°34' E 135°27'0 0.0
2015-Jan-16 13:23N 34°34' E 135°27'0 0.1
2015-Jan-16 12:19N 34°34' E 135°27'0 0.0
2015-Jan-16 11:26N 34°34' E 135°27'0 0.0
2015-Jan-16 02:09N 34°34' E 135°27'2 0.2
2015-Jan-15 19:33N 34°35' E 135°28'1 0.1
2015-Jan-15 03:10N 34°35' E 135°27'0 0.0
2015-Jan-14 17:28N 34°35' E 135°27'0 0.0
2015-Jan-14 16:22N 34°35' E 135°27'0 0.0
2015-Jan-14 15:28N 34°35' E 135°27'0 0.0
2015-Jan-14 14:16N 34°35' E 135°27'0 0.0
2015-Jan-14 13:22N 34°35' E 135°27'0 0.0
2015-Jan-14 12:22N 34°35' E 135°27'6 6.9
2015-Jan-14 11:33N 34°34' E 135°20'1312.6
2015-Jan-14 10:33N 34°25' E 135°10'1211.4
2015-Jan-14 09:29N 34°14' E 135°03'1312.5
2015-Jan-14 08:28N 34°01' E 135°02'  

Dump ship's entire track history